createdAt,value
2022-12-23T00:01:09.523Z,0.40
2022-12-23T00:03:39.559Z,0.30
2022-12-23T00:06:11.168Z,1.48
2022-12-23T00:08:40.634Z,0.40
2022-12-23T00:11:13.240Z,1.23
2022-12-23T00:14:20.412Z,0.75
2022-12-23T00:16:52.721Z,0.40
2022-12-23T00:19:21.084Z,0.47
2022-12-23T00:21:49.978Z,0.50
2022-12-23T00:24:19.660Z,0.50
2022-12-23T00:26:49.773Z,0.30
2022-12-23T00:29:18.550Z,0.30
2022-12-23T00:31:49.550Z,0.70
2022-12-23T00:34:19.757Z,0.40
2022-12-23T00:36:47.743Z,0.30
2022-12-23T00:39:32.824Z,1.17
2022-12-23T00:42:19.426Z,1.20
2022-12-23T00:44:47.362Z,0.10
2022-12-23T00:47:36.209Z,0.20
2022-12-23T00:50:03.174Z,0.45
2022-12-23T00:52:31.189Z,0.28
2022-12-23T00:54:59.190Z,0.45
2022-12-23T00:57:28.572Z,0.20
2022-12-23T00:59:56.556Z,0.52
2022-12-23T01:02:41.741Z,0.80
2022-12-23T01:05:37.621Z,0.40
2022-12-23T01:08:05.941Z,0.43
2022-12-23T01:10:35.705Z,0.95
2022-12-23T01:13:05.117Z,0.50
2022-12-23T01:15:35.074Z,0.40
2022-12-23T01:18:03.081Z,0.30
2022-12-23T01:20:31.069Z,0.32
2022-12-23T01:22:59.036Z,0.38
2022-12-23T01:25:27.105Z,0.50
2022-12-23T01:27:55.079Z,0.40
2022-12-23T01:30:24.866Z,0.63
2022-12-23T01:32:52.861Z,0.57
2022-12-23T01:35:20.919Z,0.30
2022-12-23T01:37:48.948Z,0.20
2022-12-23T01:40:16.969Z,0.30
2022-12-23T01:42:43.940Z,0.30
2022-12-23T01:45:18.071Z,0.40
2022-12-23T01:47:51.635Z,0.40
2022-12-23T01:50:23.010Z,0.30
2022-12-23T01:53:06.891Z,0.20
2022-12-23T01:55:39.038Z,0.32
2022-12-23T01:58:11.841Z,1.08
2022-12-23T02:00:58.922Z,0.47
2022-12-23T02:03:44.082Z,0.10
2022-12-23T02:06:33.885Z,0.60
2022-12-23T02:09:20.285Z,0.30
2022-12-23T02:12:21.684Z,0.30
2022-12-23T02:15:30.866Z,0.45
2022-12-23T02:18:23.077Z,0.40
2022-12-23T02:21:08.742Z,0.40
2022-12-23T02:24:19.130Z,0.40
2022-12-23T02:27:04.123Z,0.20
2022-12-23T02:29:52.058Z,0.20
2022-12-23T02:32:31.008Z,0.38
2022-12-23T02:35:09.932Z,0.38
2022-12-23T02:37:43.366Z,0.30
2022-12-23T02:40:16.164Z,0.75
2022-12-23T02:42:49.259Z,0.20
2022-12-23T02:45:23.111Z,0.20
2022-12-23T02:50:29.539Z,0.30
2022-12-23T02:53:01.132Z,0.30
2022-12-23T02:55:33.485Z,0.20
2022-12-23T02:58:05.412Z,0.15
2022-12-23T03:00:34.299Z,0.40
2022-12-23T03:03:05.013Z,0.30
2022-12-23T03:05:37.876Z,0.25
2022-12-23T03:08:09.100Z,0.47
2022-12-23T03:10:46.211Z,0.10
2022-12-23T03:13:24.340Z,0.28
2022-12-23T03:16:01.507Z,0.35
2022-12-23T03:18:41.069Z,0.43
2022-12-23T03:21:14.049Z,0.30
2022-12-23T03:23:50.482Z,0.28
2022-12-23T03:26:28.787Z,0.40
2022-12-23T03:29:01.723Z,0.22
2022-12-23T03:31:32.723Z,0.20
2022-12-23T03:34:06.759Z,0.20
2022-12-23T03:36:39.508Z,0.82
2022-12-23T03:39:11.938Z,0.35
2022-12-23T03:41:45.760Z,0.30
2022-12-23T03:46:50.454Z,0.40
2022-12-23T03:49:25.429Z,0.20
2022-12-23T03:51:58.765Z,0.20
2022-12-23T03:54:32.855Z,0.28
2022-12-23T03:57:04.132Z,0.35
2022-12-23T03:59:34.801Z,1.60
2022-12-23T04:02:08.768Z,0.40
2022-12-23T04:04:52.081Z,0.22
2022-12-23T04:07:24.819Z,0.60
2022-12-23T04:09:54.506Z,0.30
2022-12-23T04:12:23.867Z,0.50
2022-12-23T04:14:52.391Z,0.70
2022-12-23T04:17:21.071Z,0.50
2022-12-23T04:19:50.911Z,0.35
2022-12-23T04:22:18.865Z,0.30
2022-12-23T04:24:46.852Z,0.30
2022-12-23T04:27:16.373Z,0.20
2022-12-23T04:29:44.675Z,0.73
2022-12-23T04:32:12.743Z,0.70
2022-12-23T04:34:40.739Z,0.30
2022-12-23T04:37:11.243Z,0.68
2022-12-23T04:39:39.225Z,0.38
2022-12-23T04:42:07.456Z,0.40
2022-12-23T04:44:35.368Z,0.80
2022-12-23T04:47:06.028Z,0.30
2022-12-23T04:49:34.017Z,0.60
2022-12-23T04:52:01.995Z,0.50
2022-12-23T04:54:31.292Z,0.52
2022-12-23T04:57:00.024Z,0.25
2022-12-23T04:59:28.046Z,0.35
2022-12-23T05:01:56.172Z,0.22
2022-12-23T05:04:24.320Z,0.20
2022-12-23T05:06:52.349Z,0.28
2022-12-23T05:09:20.822Z,0.10
2022-12-23T05:11:50.173Z,0.13
2022-12-23T05:14:18.237Z,0.22
2022-12-23T05:16:46.315Z,0.45
2022-12-23T05:19:14.420Z,0.20
2022-12-23T05:21:42.372Z,0.30
2022-12-23T05:24:10.640Z,0.43
2022-12-23T05:26:38.711Z,0.80
2022-12-23T05:29:08.033Z,0.50
2022-12-23T05:31:35.993Z,0.28
2022-12-23T05:34:06.613Z,0.30
2022-12-23T05:36:35.169Z,0.28
2022-12-23T05:39:03.064Z,0.38
2022-12-23T05:41:31.012Z,0.50
2022-12-23T05:43:58.911Z,0.22
2022-12-23T05:46:28.318Z,0.80
2022-12-23T05:48:56.305Z,0.57
2022-12-23T05:51:24.265Z,0.50
2022-12-23T05:53:52.184Z,0.47
2022-12-23T05:56:20.143Z,0.40
2022-12-23T05:58:48.083Z,0.47
2022-12-23T06:01:16.157Z,0.57
2022-12-23T06:04:05.371Z,0.30
2022-12-23T06:06:33.546Z,0.50
2022-12-23T06:09:01.520Z,0.68
2022-12-23T06:11:29.937Z,0.80
2022-12-23T06:13:58.012Z,0.50
2022-12-23T06:16:26.061Z,0.22
2022-12-23T06:18:57.380Z,0.60
2022-12-23T06:21:26.754Z,0.35
2022-12-23T06:23:54.700Z,0.40
2022-12-23T06:26:28.149Z,0.55
2022-12-23T06:29:02.342Z,0.98
2022-12-23T06:31:35.449Z,0.40
2022-12-23T06:34:12.312Z,0.80
2022-12-23T06:36:46.228Z,1.75
2022-12-23T06:39:18.045Z,1.00
2022-12-23T06:41:53.299Z,0.40
2022-12-23T06:44:34.509Z,0.25
2022-12-23T06:47:10.482Z,0.30
2022-12-23T06:49:41.666Z,0.28
2022-12-23T06:52:17.614Z,0.47
2022-12-23T06:54:49.295Z,0.38
2022-12-23T06:57:25.917Z,0.30
2022-12-23T06:59:59.405Z,0.40
2022-12-23T07:02:34.747Z,0.00
2022-12-23T07:05:16.172Z,0.38
2022-12-23T07:07:58.505Z,0.15
2022-12-23T07:10:30.545Z,0.20
2022-12-23T07:13:00.755Z,0.10
2022-12-23T07:15:33.777Z,0.20
2022-12-23T07:18:36.548Z,0.20
2022-12-23T07:21:24.832Z,0.28
2022-12-23T07:24:14.609Z,0.35
2022-12-23T07:26:50.427Z,0.20
2022-12-23T07:29:23.946Z,0.10
2022-12-23T07:32:38.059Z,0.10
2022-12-23T07:35:09.332Z,0.20
2022-12-23T07:37:40.290Z,0.10
2022-12-23T07:40:12.240Z,0.30
2022-12-23T07:51:45.406Z,0.52
2022-12-23T07:54:25.048Z,0.40
2022-12-23T07:57:06.142Z,0.73
2022-12-23T07:59:41.493Z,0.60
2022-12-23T08:02:17.693Z,0.52
2022-12-23T08:04:50.530Z,0.30
2022-12-23T08:07:27.420Z,0.20
2022-12-23T08:10:02.134Z,0.40
2022-12-23T08:12:37.212Z,0.30
2022-12-23T08:15:11.210Z,0.28
2022-12-23T08:20:29.990Z,0.40
2022-12-23T08:23:00.719Z,0.40
2022-12-23T08:25:34.504Z,0.52
2022-12-23T08:30:48.895Z,0.60
2022-12-23T08:33:28.299Z,0.50
2022-12-23T08:36:03.269Z,0.38
2022-12-23T08:38:35.087Z,0.40
2022-12-23T08:41:14.015Z,0.40
2022-12-23T08:43:45.236Z,0.57
2022-12-23T08:46:17.576Z,0.57
2022-12-23T08:48:52.201Z,0.40
2022-12-23T08:51:27.978Z,0.98
2022-12-23T08:54:07.890Z,0.38
2022-12-23T08:56:43.517Z,0.40
2022-12-23T08:59:20.120Z,0.35
2022-12-23T09:02:04.160Z,0.50
2022-12-23T09:07:10.709Z,0.40
2022-12-23T09:09:42.857Z,0.22
2022-12-23T09:12:20.419Z,0.30
2022-12-23T09:14:53.698Z,0.68
2022-12-23T09:17:28.319Z,0.60
2022-12-23T09:20:03.462Z,0.60
2022-12-23T09:22:42.347Z,0.35
2022-12-23T09:25:18.605Z,0.40
2022-12-23T09:27:53.484Z,0.22
2022-12-23T09:30:32.134Z,0.30
2022-12-23T09:33:04.639Z,0.35
2022-12-23T09:35:36.134Z,0.25
2022-12-23T09:38:08.877Z,0.65
2022-12-23T09:40:40.257Z,0.40
2022-12-23T09:43:19.041Z,0.32
2022-12-23T09:45:57.288Z,0.30
2022-12-23T09:48:29.432Z,0.17
2022-12-23T09:50:57.741Z,0.47
2022-12-23T09:53:34.233Z,0.60
2022-12-23T09:56:09.353Z,0.47
2022-12-23T09:58:45.166Z,0.50
2022-12-23T10:01:20.217Z,0.50
2022-12-23T10:04:20.418Z,0.50
2022-12-23T10:06:59.356Z,0.40
2022-12-23T10:09:31.626Z,0.40
2022-12-23T10:12:01.491Z,0.40
2022-12-23T10:14:33.221Z,0.50
2022-12-23T10:17:09.194Z,0.40
2022-12-23T10:19:42.877Z,0.60
2022-12-23T10:22:16.291Z,0.50
2022-12-23T10:24:46.911Z,0.20
2022-12-23T10:27:24.271Z,0.40
2022-12-23T10:29:53.782Z,0.45
2022-12-23T10:32:30.029Z,0.28
2022-12-23T10:35:03.895Z,0.30
2022-12-23T10:40:16.326Z,0.40
2022-12-23T10:42:52.519Z,0.50
2022-12-23T10:45:37.038Z,0.35
2022-12-23T10:48:16.381Z,0.52
2022-12-23T10:51:02.646Z,0.35
2022-12-23T10:53:37.006Z,0.40
2022-12-23T10:56:06.773Z,0.40
2022-12-23T10:58:38.182Z,0.40
2022-12-23T11:01:16.083Z,0.40
2022-12-23T11:03:56.795Z,0.57
2022-12-23T11:06:33.102Z,0.30
2022-12-23T11:09:06.166Z,0.40
2022-12-23T11:11:57.606Z,0.40
2022-12-23T11:14:38.259Z,0.50
2022-12-23T11:17:21.075Z,0.43
2022-12-23T11:19:49.486Z,0.57
2022-12-23T11:22:25.396Z,0.60
2022-12-23T11:24:53.858Z,0.50
2022-12-23T11:27:21.835Z,0.32
2022-12-23T11:29:52.869Z,0.40
2022-12-23T11:32:25.844Z,0.35
2022-12-23T11:34:54.266Z,0.40
2022-12-23T11:37:33.772Z,0.50
2022-12-23T11:40:01.959Z,0.28
2022-12-23T11:42:31.723Z,0.45
2022-12-23T11:45:05.046Z,0.40
2022-12-23T11:47:41.074Z,0.30
2022-12-23T11:50:30.441Z,0.40
2022-12-23T11:53:10.804Z,0.40
2022-12-23T11:55:45.674Z,0.20
2022-12-23T11:58:20.311Z,0.38
2022-12-23T12:00:57.868Z,0.25
2022-12-23T12:03:32.073Z,0.30
2022-12-23T12:06:02.851Z,0.40
2022-12-23T12:08:34.303Z,0.40
2022-12-23T12:11:07.448Z,0.40
2022-12-23T12:13:46.238Z,0.32
2022-12-23T12:16:29.007Z,0.30
2022-12-23T12:19:03.922Z,0.50
2022-12-23T12:21:34.869Z,0.22
2022-12-23T12:24:18.402Z,0.47
2022-12-23T12:26:51.461Z,0.77
2022-12-23T12:29:26.521Z,0.73
2022-12-23T12:32:03.300Z,0.60
2022-12-23T12:34:43.691Z,0.73
2022-12-23T12:37:23.708Z,0.77
2022-12-23T12:39:55.367Z,1.13
2022-12-23T12:42:30.350Z,0.95
2022-12-23T12:45:12.031Z,0.80
2022-12-23T12:47:53.849Z,0.80
2022-12-23T12:50:28.682Z,0.75
2022-12-23T12:53:01.551Z,1.88
2022-12-23T12:55:33.745Z,1.13
2022-12-23T12:58:03.723Z,0.57
2022-12-23T13:00:46.480Z,0.93
2022-12-23T13:03:31.812Z,1.35
2022-12-23T13:06:14.073Z,1.40
2022-12-23T13:09:02.870Z,0.68
2022-12-23T13:11:40.519Z,0.88
2022-12-23T13:14:22.904Z,0.52
2022-12-23T13:17:01.875Z,0.80
2022-12-23T13:19:38.521Z,0.47
2022-12-23T13:22:11.123Z,0.65
2022-12-23T13:24:53.161Z,0.60
2022-12-23T13:27:28.330Z,0.90
2022-12-23T13:30:06.783Z,0.68
2022-12-23T13:32:58.157Z,0.50
2022-12-23T13:35:49.928Z,0.50
2022-12-23T13:38:35.993Z,0.57
2022-12-23T13:41:09.544Z,0.60
2022-12-23T13:43:45.145Z,0.30
2022-12-23T13:46:23.381Z,0.75
2022-12-23T13:48:59.375Z,0.50
2022-12-23T13:51:36.282Z,0.75
2022-12-23T13:54:13.496Z,0.70
2022-12-23T13:56:48.138Z,0.40
2022-12-23T13:59:18.313Z,0.40
2022-12-23T14:01:49.232Z,0.68
2022-12-23T14:04:38.215Z,0.30
2022-12-23T14:07:19.430Z,0.50
2022-12-23T14:09:53.279Z,0.80
2022-12-23T14:15:06.828Z,0.60
2022-12-23T14:17:44.882Z,0.57
2022-12-23T14:20:28.160Z,0.70
2022-12-23T14:23:06.817Z,0.75
2022-12-23T14:25:51.556Z,0.73
2022-12-23T14:28:35.917Z,1.23
2022-12-23T14:31:06.190Z,0.80
2022-12-23T14:33:38.167Z,0.70
2022-12-23T14:36:22.821Z,1.27
2022-12-23T14:39:23.865Z,1.52
2022-12-23T14:41:57.558Z,1.00
2022-12-23T14:44:55.900Z,1.40
2022-12-23T14:47:32.939Z,1.50
2022-12-23T14:50:34.080Z,3.60
2022-12-23T14:53:03.033Z,1.40
2022-12-23T14:56:09.710Z,1.83
2022-12-23T14:59:11.243Z,1.27
2022-12-23T15:01:41.205Z,2.03
2022-12-23T15:04:23.480Z,1.35
2022-12-23T15:06:58.643Z,1.48
2022-12-23T15:09:29.197Z,1.73
2022-12-23T15:12:01.076Z,1.60
2022-12-23T15:14:48.304Z,1.30
2022-12-23T15:17:18.862Z,1.90
2022-12-23T15:19:48.325Z,2.25
2022-12-23T15:22:22.586Z,1.65
2022-12-23T15:24:51.999Z,1.80
2022-12-23T15:27:30.455Z,2.78
2022-12-23T15:30:00.171Z,1.70
2022-12-23T15:32:29.693Z,2.13
2022-12-23T15:35:03.305Z,2.35
2022-12-23T15:37:32.727Z,2.53
2022-12-23T15:40:12.574Z,2.42
2022-12-23T15:42:48.450Z,2.47
2022-12-23T15:45:31.938Z,2.50
2022-12-23T15:48:03.655Z,2.40
2022-12-23T15:50:32.429Z,2.25
2022-12-23T15:53:07.608Z,2.70
2022-12-23T15:55:37.482Z,1.95
2022-12-23T15:58:06.085Z,1.98
2022-12-23T16:00:40.300Z,1.80
2022-12-23T16:03:23.949Z,2.20
2022-12-23T16:05:52.286Z,1.42
2022-12-23T16:08:29.917Z,1.88
2022-12-23T16:11:06.904Z,1.92
2022-12-23T16:13:34.979Z,1.77
2022-12-23T16:16:32.109Z,1.70
2022-12-23T16:19:00.142Z,2.20
2022-12-23T16:21:39.085Z,2.95
2022-12-23T16:24:09.770Z,2.55
2022-12-23T16:26:42.400Z,1.48
2022-12-23T16:29:12.339Z,1.98
2022-12-23T16:31:49.833Z,1.58
2022-12-23T16:34:20.228Z,1.10
2022-12-23T16:36:48.231Z,1.27
2022-12-23T16:39:21.962Z,1.90
2022-12-23T16:41:50.537Z,0.90
2022-12-23T16:44:19.471Z,1.33
2022-12-23T16:46:53.547Z,1.08
2022-12-23T16:49:29.529Z,1.55
2022-12-23T16:52:01.233Z,1.30
2022-12-23T16:54:29.375Z,1.10
2022-12-23T16:56:58.423Z,1.63
2022-12-23T16:59:26.405Z,1.85
2022-12-23T17:02:01.386Z,1.17
2022-12-23T17:04:31.571Z,1.35
2022-12-23T17:06:59.598Z,1.63
2022-12-23T17:09:27.580Z,2.00
2022-12-23T17:11:56.394Z,1.20
2022-12-23T17:14:26.689Z,1.27
2022-12-23T17:16:56.182Z,1.02
2022-12-23T17:19:28.912Z,1.17
2022-12-23T17:22:00.974Z,1.63
2022-12-23T17:24:32.404Z,1.38
2022-12-23T17:27:00.434Z,1.63
2022-12-23T17:29:28.605Z,1.58
2022-12-23T17:31:58.147Z,2.63
2022-12-23T17:34:26.155Z,1.70
2022-12-23T17:36:54.573Z,1.48
2022-12-23T17:42:49.720Z,1.70
2022-12-23T17:45:26.882Z,4.40
2022-12-23T17:47:56.350Z,1.05
2022-12-23T17:50:25.321Z,1.42
2022-12-23T17:52:53.512Z,1.48
2022-12-23T17:55:24.459Z,1.55
2022-12-23T17:57:53.334Z,1.13
2022-12-23T18:00:32.084Z,1.60
2022-12-23T18:03:05.747Z,1.60
2022-12-23T18:05:36.856Z,1.58
2022-12-23T18:08:06.141Z,1.30
2022-12-23T18:10:38.084Z,0.98
2022-12-23T18:13:08.375Z,1.48
2022-12-23T18:15:38.730Z,1.70
2022-12-23T18:18:19.014Z,1.25
2022-12-23T18:20:53.582Z,0.98
2022-12-23T18:23:25.800Z,1.10
2022-12-23T18:25:54.013Z,1.25
2022-12-23T18:28:21.960Z,1.42
2022-12-23T18:30:50.366Z,2.15
2022-12-23T18:33:19.852Z,1.42
2022-12-23T18:35:49.231Z,1.38
2022-12-23T18:38:18.000Z,1.40
2022-12-23T18:40:46.073Z,1.60
2022-12-23T18:43:19.268Z,1.70
2022-12-23T18:45:52.468Z,1.45
2022-12-23T18:48:23.037Z,1.25
2022-12-23T18:50:51.016Z,1.65
2022-12-23T18:53:24.782Z,1.77
2022-12-23T18:55:53.884Z,1.83
2022-12-23T18:58:22.447Z,1.50
2022-12-23T19:00:52.719Z,1.35
2022-12-23T19:03:25.520Z,1.67
2022-12-23T19:05:57.015Z,1.40
2022-12-23T19:08:27.841Z,1.90
2022-12-23T19:10:57.123Z,1.73
2022-12-23T19:13:25.345Z,2.00
2022-12-23T19:15:53.567Z,2.58
2022-12-23T19:18:35.029Z,1.42
2022-12-23T19:21:06.119Z,1.30
2022-12-23T19:23:36.033Z,1.58
2022-12-23T19:26:06.254Z,1.25
2022-12-23T19:28:35.084Z,1.52
2022-12-23T19:31:08.866Z,1.50
2022-12-23T19:33:39.008Z,1.55
2022-12-23T19:36:11.095Z,1.35
2022-12-23T19:38:39.791Z,2.08
2022-12-23T19:41:08.342Z,2.08
2022-12-23T19:43:36.544Z,1.88
2022-12-23T19:46:07.342Z,1.17
2022-12-23T19:48:35.614Z,1.20
2022-12-23T19:51:07.236Z,1.60
2022-12-23T19:53:35.915Z,1.50
2022-12-23T19:56:05.808Z,1.63
2022-12-23T19:58:36.122Z,1.58
2022-12-23T20:01:09.495Z,1.50
2022-12-23T20:03:38.392Z,2.20
2022-12-23T20:06:09.478Z,1.85
2022-12-23T20:08:37.468Z,1.45
2022-12-23T20:11:10.415Z,2.28
2022-12-23T20:13:38.976Z,1.40
2022-12-23T20:16:08.754Z,1.48
2022-12-23T20:18:37.215Z,1.60
2022-12-23T20:21:07.042Z,1.67
2022-12-23T20:23:36.734Z,1.52
2022-12-23T20:26:05.666Z,1.80
2022-12-23T20:28:34.512Z,1.60
2022-12-23T20:31:09.022Z,1.63
2022-12-23T20:33:38.169Z,1.35
2022-12-23T20:36:07.932Z,1.35
2022-12-23T20:38:38.798Z,1.15
2022-12-23T20:41:07.158Z,1.27
2022-12-23T20:43:35.455Z,1.48
2022-12-23T20:46:03.796Z,1.00
2022-12-23T20:48:34.285Z,1.67
2022-12-23T20:51:06.025Z,1.40
2022-12-23T20:53:34.635Z,1.35
2022-12-23T20:56:06.042Z,1.05
2022-12-23T20:58:51.810Z,1.30
2022-12-23T21:01:19.824Z,1.85
2022-12-23T21:03:47.772Z,0.98
2022-12-23T21:06:15.863Z,1.42
2022-12-23T21:08:43.933Z,1.55
2022-12-23T21:11:13.306Z,1.50
2022-12-23T21:13:41.442Z,1.73
2022-12-23T21:16:12.499Z,1.55
2022-12-23T21:18:45.430Z,1.20
2022-12-23T21:21:13.880Z,1.70
2022-12-23T21:23:42.972Z,1.42
2022-12-23T21:26:15.838Z,2.03
2022-12-23T21:28:46.266Z,1.63
2022-12-23T21:31:15.360Z,1.48
2022-12-23T21:33:44.950Z,1.63
2022-12-23T21:36:19.803Z,1.83
2022-12-23T21:38:49.950Z,1.98
2022-12-23T21:41:21.744Z,1.60
2022-12-23T21:43:50.747Z,1.90
2022-12-23T21:46:20.636Z,1.70
2022-12-23T21:48:49.608Z,1.52
2022-12-23T21:51:20.148Z,1.90
2022-12-23T21:53:51.184Z,1.85
2022-12-23T21:56:24.325Z,1.85
2022-12-23T21:58:56.321Z,1.88
2022-12-23T22:01:24.914Z,2.10
2022-12-23T22:03:53.638Z,1.92
2022-12-23T22:06:23.555Z,1.65
2022-12-23T22:08:53.271Z,1.30
2022-12-23T22:11:27.253Z,1.92
2022-12-23T22:13:57.293Z,1.63
2022-12-23T22:16:27.259Z,1.30
2022-12-23T22:18:56.620Z,2.25
2022-12-23T22:21:26.798Z,1.67
2022-12-23T22:23:56.050Z,1.85
2022-12-23T22:26:27.081Z,1.67
2022-12-23T22:28:56.120Z,1.70
2022-12-23T22:31:33.011Z,2.53
2022-12-23T22:34:01.818Z,1.67
2022-12-23T22:36:32.011Z,1.40
2022-12-23T22:39:03.447Z,1.75
2022-12-23T22:41:39.211Z,1.98
2022-12-23T22:44:08.400Z,1.80
2022-12-23T22:46:39.199Z,2.00
2022-12-23T22:49:08.615Z,1.73
2022-12-23T22:51:40.131Z,1.98
2022-12-23T22:54:10.884Z,1.80
2022-12-23T22:56:40.332Z,1.90
2022-12-23T22:59:08.361Z,2.15
2022-12-23T23:01:39.070Z,2.70
2022-12-23T23:04:07.995Z,2.22
2022-12-23T23:06:40.173Z,1.83
2022-12-23T23:09:09.986Z,1.30
2022-12-23T23:11:43.163Z,2.25
2022-12-23T23:14:11.450Z,2.42
2022-12-23T23:16:39.872Z,1.95
2022-12-23T23:19:09.214Z,1.85
2022-12-23T23:21:37.999Z,2.03
2022-12-23T23:24:06.587Z,3.63
2022-12-23T23:26:34.623Z,2.10
2022-12-23T23:29:04.391Z,2.00
2022-12-23T23:31:41.909Z,2.00
2022-12-23T23:34:10.582Z,2.45
2022-12-23T23:36:38.628Z,3.58
2022-12-23T23:39:06.731Z,2.92
2022-12-23T23:41:35.946Z,2.42
2022-12-23T23:44:05.517Z,2.95
2022-12-23T23:46:34.321Z,3.47
2022-12-23T23:49:03.400Z,2.50
2022-12-23T23:51:31.328Z,2.28
2022-12-23T23:53:59.276Z,3.00
2022-12-23T23:56:33.870Z,2.28
2022-12-23T23:59:08.001Z,2.25
